createdAt,value
2023-05-19T00:00:09.435Z,22.30
2023-05-19T00:00:29.483Z,22.29
2023-05-19T00:00:39.404Z,22.29
2023-05-19T00:00:51.032Z,22.29
2023-05-19T00:00:59.403Z,22.29
2023-05-19T00:01:09.425Z,22.30
2023-05-19T00:01:19.394Z,22.30
2023-05-19T00:01:38.385Z,22.31
2023-05-19T00:01:49.407Z,22.30
2023-05-19T00:02:09.592Z,22.31
2023-05-19T00:02:19.431Z,22.31
2023-05-19T00:02:29.585Z,22.30
2023-05-19T00:02:39.655Z,22.29
2023-05-19T00:02:49.504Z,22.29
2023-05-19T00:02:59.442Z,22.29
2023-05-19T00:03:09.627Z,22.30
2023-05-19T00:03:29.433Z,22.29
2023-05-19T00:03:39.428Z,22.27
2023-05-19T00:03:49.389Z,22.31
2023-05-19T00:03:59.374Z,22.29
2023-05-19T00:04:09.408Z,22.27
2023-05-19T00:04:39.383Z,22.27
2023-05-19T00:04:49.394Z,22.33
2023-05-19T00:04:59.361Z,22.27
2023-05-19T00:05:09.378Z,22.31
2023-05-19T00:05:19.360Z,22.29
2023-05-19T00:05:29.408Z,22.27
2023-05-19T00:05:49.417Z,22.30
2023-05-19T00:05:59.418Z,22.30
2023-05-19T00:06:09.412Z,22.29
2023-05-19T00:06:19.435Z,22.27
2023-05-19T00:06:29.416Z,22.27
2023-05-19T00:06:39.352Z,22.29
2023-05-19T00:07:09.381Z,22.30
2023-05-19T00:07:19.345Z,22.29
2023-05-19T00:07:29.375Z,22.30
2023-05-19T00:07:39.361Z,22.29
2023-05-19T00:07:49.372Z,22.30
2023-05-19T00:07:59.351Z,22.30
2023-05-19T00:08:18.340Z,22.31
2023-05-19T00:08:29.370Z,22.29
2023-05-19T00:08:39.346Z,22.30
2023-05-19T00:08:49.354Z,22.29
2023-05-19T00:08:59.379Z,22.29
2023-05-19T00:09:09.366Z,22.29
2023-05-19T00:09:19.335Z,22.31
2023-05-19T00:09:29.380Z,22.30
2023-05-19T00:09:49.367Z,22.30
2023-05-19T00:09:59.333Z,22.30
2023-05-19T00:10:09.376Z,22.29
2023-05-19T00:10:19.326Z,22.30
2023-05-19T00:10:29.411Z,22.30
2023-05-19T00:10:39.333Z,22.27
2023-05-19T00:10:59.322Z,22.30
2023-05-19T00:11:09.353Z,22.29
2023-05-19T00:11:19.322Z,22.26
2023-05-19T00:11:29.365Z,22.30
2023-05-19T00:11:39.314Z,22.29
2023-05-19T00:11:49.333Z,22.27
2023-05-19T00:12:08.325Z,22.26
2023-05-19T00:12:19.313Z,22.27
2023-05-19T00:12:29.343Z,22.29
2023-05-19T00:12:39.310Z,22.27
2023-05-19T00:12:49.332Z,22.29
2023-05-19T00:12:59.309Z,22.30
2023-05-19T00:13:09.340Z,22.29
2023-05-19T00:13:29.324Z,22.29
2023-05-19T00:13:39.303Z,22.30
2023-05-19T00:13:49.353Z,22.29
2023-05-19T00:13:59.301Z,22.30
2023-05-19T00:14:09.341Z,22.27
2023-05-19T00:14:19.323Z,22.29
2023-05-19T00:14:29.331Z,22.30
2023-05-19T00:14:49.307Z,22.29
2023-05-19T00:14:59.292Z,22.30
2023-05-19T00:15:09.323Z,22.30
2023-05-19T00:15:19.305Z,22.29
2023-05-19T00:15:29.315Z,22.27
2023-05-19T00:15:39.292Z,22.27
2023-05-19T00:15:59.331Z,22.29
2023-05-19T00:16:09.325Z,22.30
2023-05-19T00:16:19.319Z,22.30
2023-05-19T00:16:29.501Z,22.26
2023-05-19T00:16:39.298Z,22.29
2023-05-19T00:16:49.312Z,22.30
2023-05-19T00:17:09.312Z,22.27
2023-05-19T00:17:19.280Z,22.27
2023-05-19T00:17:29.323Z,22.29
2023-05-19T00:17:39.286Z,22.29
2023-05-19T00:17:49.332Z,22.29
2023-05-19T00:17:59.274Z,22.30
2023-05-19T00:18:19.275Z,22.29
2023-05-19T00:18:29.312Z,22.26
2023-05-19T00:18:39.292Z,22.26
2023-05-19T00:18:49.323Z,22.29
2023-05-19T00:18:59.311Z,22.29
2023-05-19T00:19:09.334Z,22.29
2023-05-19T00:19:29.337Z,22.29
2023-05-19T00:19:49.276Z,22.27
2023-05-19T00:19:59.260Z,22.29
2023-05-19T00:20:09.278Z,22.27
2023-05-19T00:20:19.256Z,22.30
2023-05-19T00:20:39.253Z,22.29
2023-05-19T00:20:49.271Z,22.27
2023-05-19T00:20:59.252Z,22.27
2023-05-19T00:21:09.291Z,22.29
2023-05-19T00:21:19.260Z,22.29
2023-05-19T00:21:29.252Z,22.29
2023-05-19T00:21:39.343Z,22.29
2023-05-19T00:21:59.278Z,22.26
2023-05-19T00:22:19.290Z,22.27
2023-05-19T00:22:29.233Z,22.27
2023-05-19T00:22:39.274Z,22.27
2023-05-19T00:22:49.234Z,22.29
2023-05-19T00:23:09.248Z,22.30
2023-05-19T00:23:19.267Z,22.27
2023-05-19T00:23:29.236Z,22.29
2023-05-19T00:23:39.249Z,22.29
2023-05-19T00:23:49.233Z,22.30
2023-05-19T00:23:59.274Z,22.30
2023-05-19T00:24:19.259Z,22.30
2023-05-19T00:24:39.251Z,22.27
2023-05-19T00:24:49.232Z,22.26
2023-05-19T00:24:59.257Z,22.29
2023-05-19T00:25:09.227Z,22.27
2023-05-19T00:25:28.225Z,22.29
2023-05-19T00:25:39.237Z,22.27
2023-05-19T00:25:49.216Z,22.26
2023-05-19T00:25:59.233Z,22.27
2023-05-19T00:26:09.216Z,22.27
2023-05-19T00:26:19.262Z,22.27
2023-05-19T00:26:29.221Z,22.26
2023-05-19T00:26:39.266Z,22.30
2023-05-19T00:27:09.225Z,22.27
2023-05-19T00:27:19.221Z,22.30
2023-05-19T00:27:29.200Z,22.27
2023-05-19T00:27:39.219Z,22.27
2023-05-19T00:27:49.203Z,22.27
2023-05-19T00:27:59.235Z,22.29
2023-05-19T00:28:19.216Z,22.29
2023-05-19T00:28:29.195Z,22.26
2023-05-19T00:28:39.216Z,22.29
2023-05-19T00:28:49.192Z,22.29
2023-05-19T00:28:59.205Z,22.29
2023-05-19T00:29:09.205Z,22.27
2023-05-19T00:29:29.214Z,22.26
2023-05-19T00:29:39.228Z,22.27
2023-05-19T00:29:59.216Z,22.27
2023-05-19T00:30:09.187Z,22.27
2023-05-19T00:30:19.220Z,22.30
2023-05-19T00:30:29.269Z,22.27
2023-05-19T00:30:39.196Z,22.26
2023-05-19T00:30:49.180Z,22.27
2023-05-19T00:31:08.172Z,22.27
2023-05-19T00:31:19.231Z,22.30
2023-05-19T00:31:29.212Z,22.27
2023-05-19T00:31:39.244Z,22.26
2023-05-19T00:31:59.253Z,22.29
2023-05-19T00:32:09.387Z,22.27
2023-05-19T00:32:29.212Z,22.27
2023-05-19T00:32:39.202Z,22.26
2023-05-19T00:32:49.233Z,22.26
2023-05-19T00:32:59.274Z,22.27
2023-05-19T00:33:09.192Z,22.26
2023-05-19T00:33:19.175Z,22.27
2023-05-19T00:33:39.201Z,22.29
2023-05-19T00:33:49.160Z,22.27
2023-05-19T00:33:59.171Z,22.30
2023-05-19T00:34:09.163Z,22.29
2023-05-19T00:34:19.191Z,22.27
2023-05-19T00:34:49.152Z,22.30
2023-05-19T00:34:59.182Z,22.27
2023-05-19T00:35:09.153Z,22.29
2023-05-19T00:35:19.185Z,22.27
2023-05-19T00:35:29.143Z,22.24
2023-05-19T00:35:39.184Z,22.27
2023-05-19T00:35:59.160Z,22.29
2023-05-19T00:36:09.140Z,22.30
2023-05-19T00:36:19.180Z,22.27
2023-05-19T00:36:29.141Z,22.27
2023-05-19T00:36:39.182Z,22.26
2023-05-19T00:37:09.151Z,22.27
2023-05-19T00:37:19.164Z,22.29
2023-05-19T00:37:29.129Z,22.27
2023-05-19T00:37:39.157Z,22.27
2023-05-19T00:37:49.152Z,22.29
2023-05-19T00:37:59.147Z,22.27
2023-05-19T00:38:19.159Z,22.27
2023-05-19T00:38:29.125Z,22.27
2023-05-19T00:38:39.142Z,22.29
2023-05-19T00:39:03.883Z,22.27
2023-05-19T00:39:09.033Z,22.27
2023-05-19T00:39:29.068Z,22.27
2023-05-19T00:39:39.010Z,22.27
2023-05-19T00:39:49.016Z,22.29
2023-05-19T00:40:09.020Z,22.26
2023-05-19T00:40:19.002Z,22.29
2023-05-19T00:40:29.057Z,22.26
2023-05-19T00:40:39.001Z,22.27
2023-05-19T00:40:49.033Z,22.30
2023-05-19T00:40:59.001Z,22.29
2023-05-19T00:41:09.028Z,22.27
2023-05-19T00:41:29.007Z,22.29
2023-05-19T00:41:49.016Z,22.29
2023-05-19T00:41:58.986Z,22.27
2023-05-19T00:42:09.019Z,22.24
2023-05-19T00:42:18.992Z,22.26
2023-05-19T00:42:29.019Z,22.26
2023-05-19T00:42:38.995Z,22.27
2023-05-19T00:42:58.987Z,22.26
2023-05-19T00:43:08.997Z,22.26
2023-05-19T00:43:18.976Z,22.27
2023-05-19T00:43:28.994Z,22.27
2023-05-19T00:43:38.993Z,22.26
2023-05-19T00:43:48.992Z,22.26
2023-05-19T00:44:18.974Z,22.24
2023-05-19T00:44:28.988Z,22.29
2023-05-19T00:44:38.991Z,22.29
2023-05-19T00:44:48.993Z,22.30
2023-05-19T00:44:58.966Z,22.27
2023-05-19T00:45:09.013Z,22.27
2023-05-19T00:45:29.005Z,22.29
2023-05-19T00:45:38.964Z,22.29
2023-05-19T00:45:48.981Z,22.26
2023-05-19T00:45:58.962Z,22.27
2023-05-19T00:46:09.056Z,22.29
2023-05-19T00:46:18.990Z,22.26
2023-05-19T00:46:39.006Z,22.29
2023-05-19T00:46:49.061Z,22.26
2023-05-19T00:46:58.981Z,22.26
2023-05-19T00:47:09.005Z,22.29
2023-05-19T00:47:18.953Z,22.27
2023-05-19T00:47:29.038Z,22.27
2023-05-19T00:47:47.981Z,22.26
2023-05-19T00:47:58.977Z,22.26
2023-05-19T00:48:08.998Z,22.27
2023-05-19T00:48:18.951Z,22.29
2023-05-19T00:48:28.986Z,22.27
2023-05-19T00:48:38.944Z,22.26
2023-05-19T00:48:48.975Z,22.26
2023-05-19T00:49:08.958Z,22.27
2023-05-19T00:49:18.939Z,22.26
2023-05-19T00:49:28.954Z,22.29
2023-05-19T00:49:38.933Z,22.27
2023-05-19T00:49:48.965Z,22.27
2023-05-19T00:49:58.956Z,22.26
2023-05-19T00:50:08.965Z,22.26
2023-05-19T00:50:27.971Z,22.29
2023-05-19T00:50:38.929Z,22.26
2023-05-19T00:50:48.941Z,22.24
2023-05-19T00:50:58.934Z,22.27
2023-05-19T00:51:08.964Z,22.26
2023-05-19T00:51:18.924Z,22.27
2023-05-19T00:51:28.935Z,22.26
2023-05-19T00:51:48.942Z,22.29
2023-05-19T00:51:58.918Z,22.26
2023-05-19T00:52:08.947Z,22.27
2023-05-19T00:52:18.920Z,22.27
2023-05-19T00:52:28.930Z,22.26
2023-05-19T00:52:38.919Z,22.29
2023-05-19T00:52:48.946Z,22.27
2023-05-19T00:53:08.922Z,22.29
2023-05-19T00:53:18.919Z,22.27
2023-05-19T00:53:28.922Z,22.26
2023-05-19T00:53:38.907Z,22.26
2023-05-19T00:53:48.957Z,22.23
2023-05-19T00:53:58.912Z,22.26
2023-05-19T00:54:18.899Z,22.27
2023-05-19T00:54:28.920Z,22.27
2023-05-19T00:54:38.906Z,22.29
2023-05-19T00:54:48.913Z,22.27
2023-05-19T00:54:58.895Z,22.27
2023-05-19T00:55:08.956Z,22.27
2023-05-19T00:55:28.934Z,22.27
2023-05-19T00:55:38.893Z,22.24
2023-05-19T00:55:48.910Z,22.26
2023-05-19T00:55:58.898Z,22.27
2023-05-19T00:56:08.909Z,22.26
2023-05-19T00:56:18.889Z,22.26
2023-05-19T00:56:48.898Z,22.27
2023-05-19T00:56:58.882Z,22.27
2023-05-19T00:57:08.893Z,22.29
2023-05-19T00:57:18.875Z,22.26
2023-05-19T00:57:28.912Z,22.26
2023-05-19T00:57:38.899Z,22.26
2023-05-19T00:57:48.910Z,22.24
2023-05-19T00:58:08.890Z,22.27
2023-05-19T00:58:18.874Z,22.29
2023-05-19T00:58:28.894Z,22.27
2023-05-19T00:58:38.884Z,22.24
2023-05-19T00:58:48.893Z,22.26
2023-05-19T00:58:58.864Z,22.26
2023-05-19T00:59:08.896Z,22.27
2023-05-19T00:59:28.877Z,22.27
2023-05-19T00:59:38.905Z,22.26
2023-05-19T00:59:48.902Z,22.27
2023-05-19T00:59:58.868Z,22.27
2023-05-19T01:00:08.878Z,22.24
2023-05-19T01:00:18.855Z,22.24
2023-05-19T01:00:28.904Z,22.27
2023-05-19T01:00:48.898Z,22.27
2023-05-19T01:00:58.868Z,22.27
2023-05-19T01:01:08.903Z,22.27
2023-05-19T01:01:18.928Z,22.24
2023-05-19T01:01:28.975Z,22.29
2023-05-19T01:01:58.849Z,22.26
2023-05-19T01:02:08.859Z,22.24
2023-05-19T01:02:18.844Z,22.27
2023-05-19T01:02:28.950Z,22.26
2023-05-19T01:02:38.962Z,22.27
2023-05-19T01:02:48.897Z,22.27
2023-05-19T01:03:07.952Z,22.27
2023-05-19T01:03:18.885Z,22.26
2023-05-19T01:03:28.913Z,22.26
2023-05-19T01:03:38.938Z,22.26
2023-05-19T01:03:48.992Z,22.24
2023-05-19T01:03:59.209Z,22.26
2023-05-19T01:04:08.985Z,22.27
2023-05-19T01:04:18.855Z,22.26
2023-05-19T01:04:38.858Z,22.26
2023-05-19T01:04:48.824Z,22.27
2023-05-19T01:04:58.865Z,22.24
2023-05-19T01:05:08.832Z,22.26
2023-05-19T01:05:18.842Z,22.27
2023-05-19T01:05:28.825Z,22.26
2023-05-19T01:05:48.821Z,22.27
2023-05-19T01:05:58.836Z,22.24
2023-05-19T01:06:08.816Z,22.29
2023-05-19T01:06:18.838Z,22.26
2023-05-19T01:06:28.809Z,22.24
2023-05-19T01:06:58.935Z,22.26
2023-05-19T01:07:08.898Z,22.27
2023-05-19T01:07:18.933Z,22.26
2023-05-19T01:07:28.905Z,22.27
2023-05-19T01:07:38.944Z,22.27
2023-05-19T01:07:48.892Z,22.26
2023-05-19T01:08:08.892Z,22.24
2023-05-19T01:08:18.906Z,22.26
2023-05-19T01:08:28.900Z,22.27
2023-05-19T01:08:38.924Z,22.27
2023-05-19T01:08:48.888Z,22.27
2023-05-19T01:09:08.904Z,22.29
2023-05-19T01:09:28.892Z,22.27
2023-05-19T01:09:38.916Z,22.27
2023-05-19T01:09:48.882Z,22.26
2023-05-19T01:09:58.902Z,22.26
2023-05-19T01:10:08.880Z,22.26
2023-05-19T01:10:18.907Z,22.27
2023-05-19T01:10:37.903Z,22.26
2023-05-19T01:10:48.874Z,22.27
2023-05-19T01:10:58.890Z,22.27
2023-05-19T01:11:08.870Z,22.24
2023-05-19T01:11:18.922Z,22.27
2023-05-19T01:11:38.894Z,22.26
2023-05-19T01:11:58.899Z,22.27
2023-05-19T01:12:08.865Z,22.26
2023-05-19T01:12:18.898Z,22.23
2023-05-19T01:12:28.859Z,22.26
2023-05-19T01:12:38.901Z,22.26
2023-05-19T01:12:48.868Z,22.24
2023-05-19T01:13:08.860Z,22.24
2023-05-19T01:13:18.892Z,22.24
2023-05-19T01:13:28.855Z,22.27
2023-05-19T01:13:41.797Z,22.26
2023-05-19T01:13:48.858Z,22.29
2023-05-19T01:14:18.880Z,22.24
2023-05-19T01:14:28.857Z,22.24
2023-05-19T01:14:38.862Z,22.26
2023-05-19T01:14:48.851Z,22.24
2023-05-19T01:14:58.883Z,22.26
2023-05-19T01:15:08.845Z,22.26
2023-05-19T01:15:18.883Z,22.26
2023-05-19T01:15:28.849Z,22.26
2023-05-19T01:15:38.871Z,22.23
2023-05-19T01:15:58.998Z,22.24
2023-05-19T01:16:09.307Z,22.27
2023-05-19T01:16:18.909Z,22.24
2023-05-19T01:16:28.858Z,22.26
2023-05-19T01:16:48.988Z,22.24
2023-05-19T01:17:07.844Z,22.24
2023-05-19T01:17:18.845Z,22.24
2023-05-19T01:17:28.862Z,22.23
2023-05-19T01:17:38.891Z,22.24
2023-05-19T01:17:48.861Z,22.24
2023-05-19T01:17:58.929Z,22.24
2023-05-19T01:18:08.850Z,22.23
2023-05-19T01:18:18.861Z,22.23
2023-05-19T01:18:37.867Z,22.26
2023-05-19T01:18:48.938Z,22.24
2023-05-19T01:18:58.880Z,22.24
2023-05-19T01:19:08.835Z,22.26
2023-05-19T01:19:18.960Z,22.26
2023-05-19T01:19:28.808Z,22.24
2023-05-19T01:19:38.862Z,22.26
2023-05-19T01:19:57.836Z,22.26
2023-05-19T01:20:08.808Z,22.26
2023-05-19T01:20:18.826Z,22.26
2023-05-19T01:20:28.897Z,22.23
2023-05-19T01:20:38.836Z,22.27
2023-05-19T01:20:48.801Z,22.29
2023-05-19T01:20:58.819Z,22.27
2023-05-19T01:21:18.848Z,22.23
2023-05-19T01:21:28.799Z,22.27
2023-05-19T01:21:38.847Z,22.24
2023-05-19T01:21:48.812Z,22.26
2023-05-19T01:21:58.832Z,22.27
2023-05-19T01:22:08.798Z,22.27
2023-05-19T01:22:28.803Z,22.27
2023-05-19T01:22:38.825Z,22.24
2023-05-19T01:22:58.819Z,22.23
2023-05-19T01:23:08.795Z,22.23
2023-05-19T01:23:18.819Z,22.23
2023-05-19T01:23:38.808Z,22.24
2023-05-19T01:23:48.775Z,22.24
2023-05-19T01:23:58.796Z,22.27
2023-05-19T01:24:08.782Z,22.26
2023-05-19T01:24:18.809Z,22.26
2023-05-19T01:24:28.776Z,22.24
2023-05-19T01:24:48.773Z,22.29
2023-05-19T01:24:58.798Z,22.24
2023-05-19T01:25:08.801Z,22.26
2023-05-19T01:25:18.813Z,22.26
2023-05-19T01:25:28.774Z,22.24
2023-05-19T01:25:58.845Z,22.24
2023-05-19T01:26:08.765Z,22.27
2023-05-19T01:26:18.775Z,22.23
2023-05-19T01:26:28.765Z,22.27
2023-05-19T01:26:38.794Z,22.24
2023-05-19T01:26:48.763Z,22.24
2023-05-19T01:27:08.780Z,22.24
2023-05-19T01:27:18.782Z,22.24
2023-05-19T01:27:28.762Z,22.24
2023-05-19T01:27:38.814Z,22.24
2023-05-19T01:27:48.752Z,22.24
2023-05-19T01:27:58.794Z,22.24
2023-05-19T01:28:18.782Z,22.24
2023-05-19T01:28:28.761Z,22.27
2023-05-19T01:28:48.751Z,22.21
2023-05-19T01:28:58.784Z,22.23
2023-05-19T01:29:08.745Z,22.24
2023-05-19T01:29:18.765Z,22.24
2023-05-19T01:29:28.742Z,22.23
2023-05-19T01:29:38.774Z,22.24
2023-05-19T01:29:58.780Z,22.24
2023-05-19T01:30:08.753Z,22.26
2023-05-19T01:30:18.758Z,22.26
2023-05-19T01:30:28.749Z,22.24
2023-05-19T01:30:38.780Z,22.26
2023-05-19T01:31:08.731Z,22.23
2023-05-19T01:31:18.752Z,22.23
2023-05-19T01:31:28.757Z,22.23
2023-05-19T01:31:38.796Z,22.21
2023-05-19T01:31:48.770Z,22.21
2023-05-19T01:31:58.777Z,22.20
2023-05-19T01:32:18.733Z,22.23
2023-05-19T01:32:28.788Z,22.26
2023-05-19T01:32:38.847Z,22.27
2023-05-19T01:32:48.762Z,22.27
2023-05-19T01:32:58.807Z,22.23
2023-05-19T01:33:08.758Z,22.27
2023-05-19T01:33:18.743Z,22.27
2023-05-19T01:33:38.745Z,22.26
2023-05-19T01:33:48.714Z,22.26
2023-05-19T01:33:58.748Z,22.24
2023-05-19T01:34:08.710Z,22.26
2023-05-19T01:34:18.722Z,22.24
2023-05-19T01:34:28.706Z,22.26
2023-05-19T01:34:48.711Z,22.27
2023-05-19T01:34:58.723Z,22.26
2023-05-19T01:35:08.707Z,22.24
2023-05-19T01:35:18.733Z,22.24
2023-05-19T01:35:28.722Z,22.23
2023-05-19T01:35:38.748Z,22.23
2023-05-19T01:35:57.724Z,22.24
2023-05-19T01:36:08.703Z,22.23
2023-05-19T01:36:18.729Z,22.26
2023-05-19T01:36:28.692Z,22.24
2023-05-19T01:36:38.711Z,22.23
2023-05-19T01:36:48.687Z,22.23
2023-05-19T01:36:58.703Z,22.26
2023-05-19T01:37:08.704Z,22.23
2023-05-19T01:37:27.684Z,22.24
2023-05-19T01:37:38.707Z,22.26
2023-05-19T01:37:48.686Z,22.24
2023-05-19T01:37:58.729Z,22.27
2023-05-19T01:38:08.688Z,22.24
2023-05-19T01:38:18.738Z,22.26
2023-05-19T01:38:28.685Z,22.26
2023-05-19T01:38:38.713Z,22.24
2023-05-19T01:38:57.713Z,22.23
2023-05-19T01:39:08.675Z,22.26
2023-05-19T01:39:18.700Z,22.27
2023-05-19T01:39:28.674Z,22.26
2023-05-19T01:39:38.702Z,22.26
2023-05-19T01:39:48.681Z,22.24
2023-05-19T01:39:58.687Z,22.26
2023-05-19T01:40:18.686Z,22.24
2023-05-19T01:40:28.674Z,22.24
2023-05-19T01:40:38.702Z,22.26
2023-05-19T01:40:48.681Z,22.24
2023-05-19T01:40:58.704Z,22.24
2023-05-19T01:41:27.656Z,22.24
2023-05-19T01:41:38.690Z,22.23
2023-05-19T01:41:48.659Z,22.26
2023-05-19T01:41:58.677Z,22.26
2023-05-19T01:42:08.653Z,22.24
2023-05-19T01:42:18.687Z,22.24
2023-05-19T01:42:28.656Z,22.24
2023-05-19T01:42:48.651Z,22.24
2023-05-19T01:42:58.686Z,22.26
2023-05-19T01:43:08.643Z,22.26
2023-05-19T01:43:18.689Z,22.23
2023-05-19T01:43:37.675Z,22.24
2023-05-19T01:43:57.674Z,22.23
2023-05-19T01:44:08.662Z,22.24
2023-05-19T01:44:18.655Z,22.27
2023-05-19T01:44:28.640Z,22.24
2023-05-19T01:44:38.670Z,22.26
2023-05-19T01:44:48.637Z,22.26
2023-05-19T01:44:58.669Z,22.24
2023-05-19T01:45:18.671Z,22.26
2023-05-19T01:45:28.627Z,22.24
2023-05-19T01:45:38.706Z,22.23
2023-05-19T01:45:48.648Z,22.24
2023-05-19T01:46:08.656Z,22.24
2023-05-19T01:46:27.740Z,22.23
2023-05-19T01:46:38.640Z,22.24
2023-05-19T01:46:48.664Z,22.27
2023-05-19T01:46:58.623Z,22.23
2023-05-19T01:47:08.699Z,22.23
2023-05-19T01:47:18.621Z,22.21
2023-05-19T01:47:28.677Z,22.26
2023-05-19T01:47:48.668Z,22.24
2023-05-19T01:47:58.664Z,22.26
2023-05-19T01:48:11.000Z,22.24
2023-05-19T01:48:28.627Z,22.23
2023-05-19T01:48:38.613Z,22.23
2023-05-19T01:48:48.654Z,22.23
2023-05-19T01:49:07.632Z,22.23
2023-05-19T01:49:18.605Z,22.24
2023-05-19T01:49:28.638Z,22.24
2023-05-19T01:49:38.612Z,22.23
2023-05-19T01:49:48.620Z,22.20
2023-05-19T01:49:58.598Z,22.24
2023-05-19T01:50:08.655Z,22.23
2023-05-19T01:50:27.642Z,22.24
2023-05-19T01:50:38.594Z,22.23
2023-05-19T01:50:48.625Z,22.26
2023-05-19T01:51:08.614Z,22.24
2023-05-19T01:51:18.592Z,22.26
2023-05-19T01:51:28.610Z,22.23
2023-05-19T01:51:48.622Z,22.24
2023-05-19T01:51:58.586Z,22.24
2023-05-19T01:52:08.600Z,22.24
2023-05-19T01:52:18.604Z,22.23
2023-05-19T01:52:28.620Z,22.24
2023-05-19T01:52:38.591Z,22.26
2023-05-19T01:52:58.581Z,22.23
2023-05-19T01:53:08.614Z,22.24
2023-05-19T01:53:27.613Z,22.21
2023-05-19T01:53:38.585Z,22.24
2023-05-19T01:53:48.624Z,22.23
2023-05-19T01:54:08.595Z,22.24
2023-05-19T01:54:18.570Z,22.23
2023-05-19T01:54:28.589Z,22.24
2023-05-19T01:54:38.570Z,22.23
2023-05-19T01:54:48.591Z,22.23
2023-05-19T01:54:58.571Z,22.23
2023-05-19T01:55:18.579Z,22.26
2023-05-19T01:55:28.616Z,22.23
2023-05-19T01:55:38.593Z,22.23
2023-05-19T01:55:48.597Z,22.26
2023-05-19T01:56:08.591Z,22.21
2023-05-19T01:56:27.581Z,22.24
2023-05-19T01:56:38.562Z,22.23
2023-05-19T01:56:48.593Z,22.23
2023-05-19T01:56:58.562Z,22.24
2023-05-19T01:57:08.568Z,22.26
2023-05-19T01:57:18.554Z,22.24
2023-05-19T01:57:28.581Z,22.23
2023-05-19T01:57:48.570Z,22.24
2023-05-19T01:57:58.553Z,22.23
2023-05-19T01:58:08.581Z,22.23
2023-05-19T01:58:18.549Z,22.26
2023-05-19T01:58:28.576Z,22.21
2023-05-19T01:58:38.542Z,22.24
2023-05-19T01:58:48.576Z,22.26
2023-05-19T01:59:08.572Z,22.24
2023-05-19T01:59:18.566Z,22.23
2023-05-19T01:59:28.565Z,22.24
2023-05-19T01:59:38.554Z,22.23
2023-05-19T01:59:48.554Z,22.21
2023-05-19T01:59:58.535Z,22.23
2023-05-19T02:00:19.371Z,22.26
2023-05-19T02:00:28.551Z,22.26
2023-05-19T02:00:38.529Z,22.24
2023-05-19T02:00:48.553Z,22.24
2023-05-19T02:00:58.552Z,22.24
2023-05-19T02:01:08.595Z,22.27
2023-05-19T02:01:28.585Z,22.24
2023-05-19T02:01:48.596Z,22.24
2023-05-19T02:01:58.517Z,22.23
2023-05-19T02:02:08.541Z,22.21
2023-05-19T02:02:18.515Z,22.26
2023-05-19T02:02:38.550Z,22.23
2023-05-19T02:02:48.554Z,22.23
2023-05-19T02:02:58.573Z,22.23
2023-05-19T02:03:08.585Z,22.23
2023-05-19T02:03:18.509Z,22.23
2023-05-19T02:03:28.525Z,22.26
2023-05-19T02:03:48.523Z,22.26
2023-05-19T02:03:58.532Z,22.21
2023-05-19T02:04:08.617Z,22.23
2023-05-19T02:04:18.708Z,22.23
2023-05-19T02:04:28.566Z,22.23
2023-05-19T02:04:38.574Z,22.21
2023-05-19T02:04:57.520Z,22.24
2023-05-19T02:05:08.514Z,22.23
2023-05-19T02:05:18.515Z,22.26
2023-05-19T02:05:28.532Z,22.23
2023-05-19T02:05:38.512Z,22.24
2023-05-19T02:05:48.528Z,22.23
2023-05-19T02:05:58.489Z,22.23
2023-05-19T02:06:08.539Z,22.26
2023-05-19T02:06:18.519Z,22.21
2023-05-19T02:06:37.488Z,22.26
2023-05-19T02:06:48.511Z,22.23
2023-05-19T02:06:58.487Z,22.21
2023-05-19T02:07:08.499Z,22.24
2023-05-19T02:07:18.483Z,22.21
2023-05-19T02:07:28.512Z,22.24
2023-05-19T02:07:38.495Z,22.23
2023-05-19T02:07:48.513Z,22.23
2023-05-19T02:08:08.516Z,22.24
2023-05-19T02:08:27.507Z,22.23
2023-05-19T02:08:38.474Z,22.23
2023-05-19T02:08:48.490Z,22.24
2023-05-19T02:08:58.481Z,22.24
2023-05-19T02:09:08.496Z,22.21
2023-05-19T02:09:18.467Z,22.24
2023-05-19T02:09:28.495Z,22.21
2023-05-19T02:09:48.482Z,22.23
2023-05-19T02:09:58.462Z,22.24
2023-05-19T02:10:08.498Z,22.21
2023-05-19T02:10:18.463Z,22.24
2023-05-19T02:10:28.490Z,22.26
2023-05-19T02:10:57.462Z,22.26
2023-05-19T02:11:08.472Z,22.23
2023-05-19T02:11:18.454Z,22.24
2023-05-19T02:11:28.494Z,22.24
2023-05-19T02:11:38.453Z,22.26
2023-05-19T02:11:48.482Z,22.26
2023-05-19T02:11:58.451Z,22.27
2023-05-19T02:12:18.446Z,22.23
2023-05-19T02:12:28.461Z,22.23
2023-05-19T02:12:38.447Z,22.24
2023-05-19T02:12:48.479Z,22.23
2023-05-19T02:12:58.445Z,22.24
2023-05-19T02:13:28.475Z,22.26
2023-05-19T02:13:38.437Z,22.21
2023-05-19T02:13:48.463Z,22.23
2023-05-19T02:13:58.439Z,22.20
2023-05-19T02:14:08.449Z,22.23
2023-05-19T02:14:18.438Z,22.21
2023-05-19T02:14:38.436Z,22.20
2023-05-19T02:14:48.449Z,22.23
2023-05-19T02:14:58.437Z,22.23
2023-05-19T02:15:08.441Z,22.23
2023-05-19T02:15:18.441Z,22.21
2023-05-19T02:15:28.452Z,22.23
2023-05-19T02:15:47.495Z,22.23
2023-05-19T02:15:58.501Z,22.23
2023-05-19T02:16:08.552Z,22.24
2023-05-19T02:16:18.535Z,22.21
2023-05-19T02:16:28.628Z,22.23
2023-05-19T02:16:38.496Z,22.23
2023-05-19T02:16:48.496Z,22.24
2023-05-19T02:17:08.500Z,22.23
2023-05-19T02:17:18.474Z,22.21
2023-05-19T02:17:28.524Z,22.24
2023-05-19T02:17:38.530Z,22.21
2023-05-19T02:17:48.589Z,22.24
2023-05-19T02:17:58.469Z,22.24
2023-05-19T02:18:28.484Z,22.24
2023-05-19T02:18:38.457Z,22.21
2023-05-19T02:18:48.484Z,22.24
2023-05-19T02:18:58.475Z,22.23
2023-05-19T02:19:08.551Z,22.23
2023-05-19T02:19:18.462Z,22.23
2023-05-19T02:19:38.453Z,22.21
2023-05-19T02:19:48.457Z,22.23
2023-05-19T02:19:58.438Z,22.21
2023-05-19T02:20:08.474Z,22.23
2023-05-19T02:20:18.436Z,22.21
2023-05-19T02:20:28.477Z,22.23
2023-05-19T02:20:48.466Z,22.23
2023-05-19T02:21:08.451Z,22.23
2023-05-19T02:21:18.434Z,22.23
2023-05-19T02:21:28.446Z,22.21
2023-05-19T02:21:38.431Z,22.23
2023-05-19T02:21:48.480Z,22.21
2023-05-19T02:21:58.429Z,22.19
2023-05-19T02:22:17.439Z,22.21
2023-05-19T02:22:28.455Z,22.20
2023-05-19T02:22:38.422Z,22.23
2023-05-19T02:22:48.462Z,22.23
2023-05-19T02:22:58.430Z,22.20
2023-05-19T02:23:18.420Z,22.23
2023-05-19T02:23:38.413Z,22.20
2023-05-19T02:23:48.449Z,22.21
2023-05-19T02:23:58.414Z,22.23
2023-05-19T02:24:08.455Z,22.21
2023-05-19T02:24:18.413Z,22.21
2023-05-19T02:24:28.438Z,22.20
2023-05-19T02:24:48.428Z,22.21
2023-05-19T02:24:58.403Z,22.21
2023-05-19T02:25:08.434Z,22.21
2023-05-19T02:25:18.410Z,22.23
2023-05-19T02:25:28.435Z,22.21
2023-05-19T02:25:48.443Z,22.21
2023-05-19T02:26:08.424Z,22.21
2023-05-19T02:26:18.397Z,22.21
2023-05-19T02:26:28.410Z,22.21
2023-05-19T02:26:38.396Z,22.21
2023-05-19T02:26:48.419Z,22.21
2023-05-19T02:26:58.396Z,22.23
2023-05-19T02:27:08.422Z,22.23
2023-05-19T02:27:18.402Z,22.20
2023-05-19T02:27:37.391Z,22.24
2023-05-19T02:27:48.400Z,22.23
2023-05-19T02:27:58.396Z,22.24
2023-05-19T02:28:18.386Z,22.24
2023-05-19T02:28:28.502Z,22.21
2023-05-19T02:28:38.380Z,22.21
2023-05-19T02:28:48.417Z,22.23
2023-05-19T02:29:08.412Z,22.21
2023-05-19T02:29:18.375Z,22.21
2023-05-19T02:29:28.377Z,22.24
2023-05-19T02:29:38.411Z,22.21
2023-05-19T02:29:48.367Z,22.23
2023-05-19T02:29:58.406Z,22.23
2023-05-19T02:30:18.398Z,22.23
2023-05-19T02:30:38.380Z,22.24
2023-05-19T02:30:48.368Z,22.24
2023-05-19T02:30:58.381Z,22.21
2023-05-19T02:31:08.359Z,22.21
2023-05-19T02:31:28.424Z,22.21
2023-05-19T02:31:38.418Z,22.21
2023-05-19T02:31:48.411Z,22.21
2023-05-19T02:31:58.497Z,22.21
2023-05-19T02:32:08.473Z,22.23
2023-05-19T02:32:18.790Z,22.21
2023-05-19T02:32:28.376Z,22.21
2023-05-19T02:32:48.388Z,22.21
2023-05-19T02:33:07.443Z,22.20
2023-05-19T02:33:18.447Z,22.23
2023-05-19T02:33:28.432Z,22.23
2023-05-19T02:33:38.452Z,22.21
2023-05-19T02:33:48.425Z,22.23
2023-05-19T02:33:58.426Z,22.20
2023-05-19T02:34:08.410Z,22.21
2023-05-19T02:34:28.421Z,22.21
2023-05-19T02:34:38.463Z,22.26
2023-05-19T02:34:48.406Z,22.21
2023-05-19T02:34:58.433Z,22.21
2023-05-19T02:35:08.401Z,22.21
2023-05-19T02:35:18.436Z,22.24
2023-05-19T02:35:38.419Z,22.24
2023-05-19T02:35:48.396Z,22.23
2023-05-19T02:35:58.416Z,22.21
2023-05-19T02:36:08.401Z,22.26
2023-05-19T02:36:18.409Z,22.24
2023-05-19T02:36:28.393Z,22.21